sensor_id;sensor_type;location;lat;lon;timestamp;P1;durP1;ratioP1;P2;durP2;ratioP2
40162;SDS011;25881;47.462;19.304;2023-05-10T00:01:10;2.87;;;1.43;;
40162;SDS011;25881;47.462;19.304;2023-05-10T00:03:35;2.33;;;1.73;;
40162;SDS011;25881;47.462;19.304;2023-05-10T00:06:00;2.93;;;1.50;;
40162;SDS011;25881;47.462;19.304;2023-05-10T00:08:26;5.87;;;1.77;;
40162;SDS011;25881;47.462;19.304;2023-05-10T00:10:51;3.17;;;1.70;;
40162;SDS011;25881;47.462;19.304;2023-05-10T00:13:16;2.55;;;1.50;;
40162;SDS011;25881;47.462;19.304;2023-05-10T00:15:42;2.63;;;1.70;;
40162;SDS011;25881;47.462;19.304;2023-05-10T00:18:07;6.53;;;1.77;;
40162;SDS011;25881;47.462;19.304;2023-05-10T00:20:32;5.33;;;1.83;;
40162;SDS011;25881;47.462;19.304;2023-05-10T00:22:57;3.97;;;2.20;;
40162;SDS011;25881;47.462;19.304;2023-05-10T00:25:23;2.90;;;1.67;;
40162;SDS011;25881;47.462;19.304;2023-05-10T00:27:48;2.47;;;1.80;;
40162;SDS011;25881;47.462;19.304;2023-05-10T00:30:14;4.03;;;1.70;;
40162;SDS011;25881;47.462;19.304;2023-05-10T00:32:39;3.15;;;1.90;;
40162;SDS011;25881;47.462;19.304;2023-05-10T00:35:05;3.47;;;2.03;;
40162;SDS011;25881;47.462;19.304;2023-05-10T00:37:30;2.60;;;1.38;;
40162;SDS011;25881;47.462;19.304;2023-05-10T00:39:55;3.40;;;1.60;;
40162;SDS011;25881;47.462;19.304;2023-05-10T00:42:20;3.13;;;1.73;;
40162;SDS011;25881;47.462;19.304;2023-05-10T00:44:46;2.60;;;1.50;;
40162;SDS011;25881;47.462;19.304;2023-05-10T00:47:11;3.28;;;1.88;;
40162;SDS011;25881;47.462;19.304;2023-05-10T00:49:37;3.25;;;1.95;;
40162;SDS011;25881;47.462;19.304;2023-05-10T00:52:02;3.75;;;1.80;;
40162;SDS011;25881;47.462;19.304;2023-05-10T00:54:28;2.30;;;1.50;;
40162;SDS011;25881;47.462;19.304;2023-05-10T00:56:53;2.03;;;1.50;;
40162;SDS011;25881;47.462;19.304;2023-05-10T00:59:18;2.03;;;1.60;;
40162;SDS011;25881;47.462;19.304;2023-05-10T01:01:47;3.10;;;1.50;;
40162;SDS011;25881;47.462;19.304;2023-05-10T01:04:14;2.47;;;1.50;;
40162;SDS011;25881;47.462;19.304;2023-05-10T01:06:42;2.30;;;1.45;;
40162;SDS011;25881;47.462;19.304;2023-05-10T01:11:36;2.07;;;1.50;;
40162;SDS011;25881;47.462;19.304;2023-05-10T01:14:02;2.00;;;1.52;;
40162;SDS011;25881;47.462;19.304;2023-05-10T01:16:27;3.22;;;1.70;;
40162;SDS011;25881;47.462;19.304;2023-05-10T01:18:54;2.50;;;1.50;;
40162;SDS011;25881;47.462;19.304;2023-05-10T01:23:53;3.08;;;1.65;;
40162;SDS011;25881;47.462;19.304;2023-05-10T01:26:31;4.35;;;2.15;;
40162;SDS011;25881;47.462;19.304;2023-05-10T01:32:08;2.25;;;1.55;;
40162;SDS011;25881;47.462;19.304;2023-05-10T01:34:42;4.43;;;2.00;;
40162;SDS011;25881;47.462;19.304;2023-05-10T01:37:13;3.63;;;2.03;;
40162;SDS011;25881;47.462;19.304;2023-05-10T01:42:10;3.83;;;1.90;;
40162;SDS011;25881;47.462;19.304;2023-05-10T01:47:04;4.90;;;1.97;;
40162;SDS011;25881;47.462;19.304;2023-05-10T01:49:32;3.85;;;1.92;;
40162;SDS011;25881;47.462;19.304;2023-05-10T01:51:59;3.60;;;2.08;;
40162;SDS011;25881;47.462;19.304;2023-05-10T01:54:25;5.10;;;2.40;;
40162;SDS011;25881;47.462;19.304;2023-05-10T01:56:54;2.20;;;1.63;;
40162;SDS011;25881;47.462;19.304;2023-05-10T01:59:20;3.05;;;2.33;;
40162;SDS011;25881;47.462;19.304;2023-05-10T02:01:46;3.47;;;1.75;;
40162;SDS011;25881;47.462;19.304;2023-05-10T02:04:13;2.55;;;1.67;;
40162;SDS011;25881;47.462;19.304;2023-05-10T02:06:40;2.28;;;1.58;;
40162;SDS011;25881;47.462;19.304;2023-05-10T02:09:06;2.97;;;1.70;;
40162;SDS011;25881;47.462;19.304;2023-05-10T02:11:32;2.33;;;1.70;;
40162;SDS011;25881;47.462;19.304;2023-05-10T02:13:58;4.05;;;2.10;;
40162;SDS011;25881;47.462;19.304;2023-05-10T02:16:24;3.22;;;1.90;;
40162;SDS011;25881;47.462;19.304;2023-05-10T02:18:50;2.60;;;1.90;;
40162;SDS011;25881;47.462;19.304;2023-05-10T02:21:17;4.57;;;2.05;;
40162;SDS011;25881;47.462;19.304;2023-05-10T02:23:43;4.60;;;2.20;;
40162;SDS011;25881;47.462;19.304;2023-05-10T02:26:10;3.30;;;1.98;;
40162;SDS011;25881;47.462;19.304;2023-05-10T02:28:36;3.15;;;2.05;;
40162;SDS011;25881;47.462;19.304;2023-05-10T02:31:02;2.85;;;1.88;;
40162;SDS011;25881;47.462;19.304;2023-05-10T02:33:27;4.88;;;2.20;;
40162;SDS011;25881;47.462;19.304;2023-05-10T02:35:53;4.22;;;2.08;;
40162;SDS011;25881;47.462;19.304;2023-05-10T02:38:20;4.47;;;2.58;;
40162;SDS011;25881;47.462;19.304;2023-05-10T02:40:46;2.75;;;2.05;;
40162;SDS011;25881;47.462;19.304;2023-05-10T02:43:12;3.13;;;1.77;;
40162;SDS011;25881;47.462;19.304;2023-05-10T02:45:39;5.95;;;2.33;;
40162;SDS011;25881;47.462;19.304;2023-05-10T02:48:05;4.13;;;2.10;;
40162;SDS011;25881;47.462;19.304;2023-05-10T02:50:31;4.63;;;2.40;;
40162;SDS011;25881;47.462;19.304;2023-05-10T02:52:59;3.03;;;2.30;;
40162;SDS011;25881;47.462;19.304;2023-05-10T02:55:26;4.22;;;2.15;;
40162;SDS011;25881;47.462;19.304;2023-05-10T02:57:54;3.40;;;1.95;;
40162;SDS011;25881;47.462;19.304;2023-05-10T03:00:21;3.03;;;2.05;;
40162;SDS011;25881;47.462;19.304;2023-05-10T03:02:46;4.97;;;2.37;;
40162;SDS011;25881;47.462;19.304;2023-05-10T03:05:12;4.20;;;2.42;;
40162;SDS011;25881;47.462;19.304;2023-05-10T03:07:37;3.77;;;2.27;;
40162;SDS011;25881;47.462;19.304;2023-05-10T03:10:03;4.57;;;2.30;;
40162;SDS011;25881;47.462;19.304;2023-05-10T03:17:47;3.45;;;2.08;;
40162;SDS011;25881;47.462;19.304;2023-05-10T03:20:36;17.15;;;9.10;;
40162;SDS011;25881;47.462;19.304;2023-05-10T03:23:00;10.90;;;6.35;;
40162;SDS011;25881;47.462;19.304;2023-05-10T03:25:27;6.35;;;3.75;;
40162;SDS011;25881;47.462;19.304;2023-05-10T03:27:53;6.53;;;3.40;;
40162;SDS011;25881;47.462;19.304;2023-05-10T03:30:19;3.97;;;2.75;;
40162;SDS011;25881;47.462;19.304;2023-05-10T03:32:44;5.68;;;2.70;;
40162;SDS011;25881;47.462;19.304;2023-05-10T03:35:10;7.00;;;3.42;;
40162;SDS011;25881;47.462;19.304;2023-05-10T03:37:37;7.90;;;4.25;;
40162;SDS011;25881;47.462;19.304;2023-05-10T03:40:02;7.27;;;3.60;;
40162;SDS011;25881;47.462;19.304;2023-05-10T03:42:27;6.43;;;3.30;;
40162;SDS011;25881;47.462;19.304;2023-05-10T03:44:53;5.15;;;2.67;;
40162;SDS011;25881;47.462;19.304;2023-05-10T03:47:18;5.28;;;3.00;;
40162;SDS011;25881;47.462;19.304;2023-05-10T03:49:43;7.87;;;3.33;;
40162;SDS011;25881;47.462;19.304;2023-05-10T03:52:08;9.07;;;3.70;;
40162;SDS011;25881;47.462;19.304;2023-05-10T03:54:34;4.53;;;3.27;;
40162;SDS011;25881;47.462;19.304;2023-05-10T03:56:59;8.80;;;4.20;;
40162;SDS011;25881;47.462;19.304;2023-05-10T03:59:25;28.60;;;10.85;;
40162;SDS011;25881;47.462;19.304;2023-05-10T04:01:51;7.70;;;4.20;;
40162;SDS011;25881;47.462;19.304;2023-05-10T04:04:16;5.30;;;3.07;;
40162;SDS011;25881;47.462;19.304;2023-05-10T04:06:43;11.55;;;3.22;;
40162;SDS011;25881;47.462;19.304;2023-05-10T04:09:08;5.73;;;2.70;;
40162;SDS011;25881;47.462;19.304;2023-05-10T04:11:34;4.95;;;2.78;;
40162;SDS011;25881;47.462;19.304;2023-05-10T04:13:59;3.27;;;2.13;;
40162;SDS011;25881;47.462;19.304;2023-05-10T04:16:24;4.00;;;2.50;;
40162;SDS011;25881;47.462;19.304;2023-05-10T04:18:49;4.43;;;2.28;;
40162;SDS011;25881;47.462;19.304;2023-05-10T04:21:15;4.05;;;2.30;;
40162;SDS011;25881;47.462;19.304;2023-05-10T04:23:40;4.43;;;2.40;;
40162;SDS011;25881;47.462;19.304;2023-05-10T04:26:07;5.97;;;2.80;;
40162;SDS011;25881;47.462;19.304;2023-05-10T04:28:32;5.10;;;2.35;;
40162;SDS011;25881;47.462;19.304;2023-05-10T04:31:04;4.53;;;2.78;;
40162;SDS011;25881;47.462;19.304;2023-05-10T04:33:29;5.00;;;2.78;;
40162;SDS011;25881;47.462;19.304;2023-05-10T04:35:54;4.43;;;2.72;;
40162;SDS011;25881;47.462;19.304;2023-05-10T04:38:20;6.23;;;3.03;;
40162;SDS011;25881;47.462;19.304;2023-05-10T04:40:45;4.67;;;2.37;;
40162;SDS011;25881;47.462;19.304;2023-05-10T04:43:10;3.70;;;2.77;;
40162;SDS011;25881;47.462;19.304;2023-05-10T04:45:35;3.73;;;2.50;;
40162;SDS011;25881;47.462;19.304;2023-05-10T04:48:00;4.33;;;2.60;;
40162;SDS011;25881;47.462;19.304;2023-05-10T04:50:26;4.43;;;2.60;;
40162;SDS011;25881;47.462;19.304;2023-05-10T04:52:51;4.50;;;2.93;;
40162;SDS011;25881;47.462;19.304;2023-05-10T04:55:16;4.00;;;2.30;;
40162;SDS011;25881;47.462;19.304;2023-05-10T04:57:41;3.58;;;2.30;;
40162;SDS011;25881;47.462;19.304;2023-05-10T05:00:07;6.17;;;3.20;;
40162;SDS011;25881;47.462;19.304;2023-05-10T05:02:33;3.80;;;2.25;;
40162;SDS011;25881;47.462;19.304;2023-05-10T05:04:58;4.40;;;2.67;;
40162;SDS011;25881;47.462;19.304;2023-05-10T05:07:23;4.63;;;2.40;;
40162;SDS011;25881;47.462;19.304;2023-05-10T05:09:48;4.37;;;2.50;;
40162;SDS011;25881;47.462;19.304;2023-05-10T05:12:14;4.57;;;2.63;;
40162;SDS011;25881;47.462;19.304;2023-05-10T05:14:39;5.87;;;2.30;;
40162;SDS011;25881;47.462;19.304;2023-05-10T05:17:05;4.40;;;2.63;;
40162;SDS011;25881;47.462;19.304;2023-05-10T05:19:30;4.60;;;2.28;;
40162;SDS011;25881;47.462;19.304;2023-05-10T05:21:56;5.38;;;3.00;;
40162;SDS011;25881;47.462;19.304;2023-05-10T05:24:21;4.47;;;3.00;;
40162;SDS011;25881;47.462;19.304;2023-05-10T05:26:46;4.07;;;2.45;;
40162;SDS011;25881;47.462;19.304;2023-05-10T05:29:12;4.05;;;2.83;;
40162;SDS011;25881;47.462;19.304;2023-05-10T05:31:37;6.20;;;2.87;;
40162;SDS011;25881;47.462;19.304;2023-05-10T05:34:02;5.40;;;2.50;;
40162;SDS011;25881;47.462;19.304;2023-05-10T05:36:28;5.03;;;2.87;;
40162;SDS011;25881;47.462;19.304;2023-05-10T05:38:53;4.60;;;2.37;;
40162;SDS011;25881;47.462;19.304;2023-05-10T05:41:18;5.07;;;2.83;;
40162;SDS011;25881;47.462;19.304;2023-05-10T05:43:43;4.07;;;2.67;;
40162;SDS011;25881;47.462;19.304;2023-05-10T05:46:09;3.87;;;2.70;;
40162;SDS011;25881;47.462;19.304;2023-05-10T05:48:34;4.90;;;2.73;;
40162;SDS011;25881;47.462;19.304;2023-05-10T05:50:59;5.72;;;2.70;;
40162;SDS011;25881;47.462;19.304;2023-05-10T05:53:24;4.60;;;2.93;;
40162;SDS011;25881;47.462;19.304;2023-05-10T05:55:53;4.90;;;2.85;;
40162;SDS011;25881;47.462;19.304;2023-05-10T05:58:19;5.75;;;2.72;;
40162;SDS011;25881;47.462;19.304;2023-05-10T06:00:44;3.78;;;2.40;;
40162;SDS011;25881;47.462;19.304;2023-05-10T06:03:10;4.40;;;2.42;;
40162;SDS011;25881;47.462;19.304;2023-05-10T06:05:35;4.75;;;2.63;;
40162;SDS011;25881;47.462;19.304;2023-05-10T06:08:00;5.88;;;2.70;;
40162;SDS011;25881;47.462;19.304;2023-05-10T06:10:26;4.82;;;2.50;;
40162;SDS011;25881;47.462;19.304;2023-05-10T06:12:51;5.53;;;3.10;;
40162;SDS011;25881;47.462;19.304;2023-05-10T06:15:17;6.03;;;2.72;;
40162;SDS011;25881;47.462;19.304;2023-05-10T06:17:42;6.17;;;2.37;;
40162;SDS011;25881;47.462;19.304;2023-05-10T06:20:08;5.35;;;3.20;;
40162;SDS011;25881;47.462;19.304;2023-05-10T06:22:33;4.60;;;2.63;;
40162;SDS011;25881;47.462;19.304;2023-05-10T06:24:59;4.77;;;3.17;;
40162;SDS011;25881;47.462;19.304;2023-05-10T06:27:24;5.40;;;3.20;;
40162;SDS011;25881;47.462;19.304;2023-05-10T06:29:49;3.27;;;2.40;;
40162;SDS011;25881;47.462;19.304;2023-05-10T06:32:14;4.37;;;2.80;;
40162;SDS011;25881;47.462;19.304;2023-05-10T06:34:40;4.32;;;2.90;;
40162;SDS011;25881;47.462;19.304;2023-05-10T06:37:05;5.40;;;3.00;;
40162;SDS011;25881;47.462;19.304;2023-05-10T06:39:30;4.40;;;3.03;;
40162;SDS011;25881;47.462;19.304;2023-05-10T06:41:55;5.93;;;3.27;;
40162;SDS011;25881;47.462;19.304;2023-05-10T06:44:20;4.37;;;2.67;;
40162;SDS011;25881;47.462;19.304;2023-05-10T06:46:46;4.55;;;2.53;;
40162;SDS011;25881;47.462;19.304;2023-05-10T06:49:11;4.15;;;2.50;;
40162;SDS011;25881;47.462;19.304;2023-05-10T06:51:37;6.33;;;2.60;;
40162;SDS011;25881;47.462;19.304;2023-05-10T06:54:02;6.53;;;2.87;;
40162;SDS011;25881;47.462;19.304;2023-05-10T06:56:28;5.07;;;2.70;;
40162;SDS011;25881;47.462;19.304;2023-05-10T06:58:53;5.73;;;3.07;;
40162;SDS011;25881;47.462;19.304;2023-05-10T07:01:18;5.07;;;3.10;;
40162;SDS011;25881;47.462;19.304;2023-05-10T07:03:43;4.73;;;2.63;;
40162;SDS011;25881;47.462;19.304;2023-05-10T07:06:09;3.63;;;2.40;;
40162;SDS011;25881;47.462;19.304;2023-05-10T07:08:34;4.50;;;2.92;;
40162;SDS011;25881;47.462;19.304;2023-05-10T07:11:03;4.43;;;2.73;;
40162;SDS011;25881;47.462;19.304;2023-05-10T07:13:29;5.72;;;3.10;;
40162;SDS011;25881;47.462;19.304;2023-05-10T07:15:54;5.50;;;3.50;;
40162;SDS011;25881;47.462;19.304;2023-05-10T07:18:19;4.53;;;2.70;;
40162;SDS011;25881;47.462;19.304;2023-05-10T07:20:44;5.47;;;3.00;;
40162;SDS011;25881;47.462;19.304;2023-05-10T07:23:09;5.90;;;2.77;;
40162;SDS011;25881;47.462;19.304;2023-05-10T07:25:35;5.23;;;2.90;;
40162;SDS011;25881;47.462;19.304;2023-05-10T07:28:00;5.03;;;2.78;;
40162;SDS011;25881;47.462;19.304;2023-05-10T07:30:25;5.83;;;2.60;;
40162;SDS011;25881;47.462;19.304;2023-05-10T07:32:51;5.00;;;2.97;;
40162;SDS011;25881;47.462;19.304;2023-05-10T07:35:16;3.95;;;2.70;;
40162;SDS011;25881;47.462;19.304;2023-05-10T07:37:41;4.35;;;2.70;;
40162;SDS011;25881;47.462;19.304;2023-05-10T07:40:07;4.03;;;2.77;;
40162;SDS011;25881;47.462;19.304;2023-05-10T07:42:32;5.70;;;3.17;;
40162;SDS011;25881;47.462;19.304;2023-05-10T07:44:57;6.60;;;2.97;;
40162;SDS011;25881;47.462;19.304;2023-05-10T07:47:22;4.15;;;2.53;;
40162;SDS011;25881;47.462;19.304;2023-05-10T07:49:48;5.10;;;3.03;;
40162;SDS011;25881;47.462;19.304;2023-05-10T07:52:13;6.53;;;2.93;;
40162;SDS011;25881;47.462;19.304;2023-05-10T07:54:38;4.90;;;3.03;;
40162;SDS011;25881;47.462;19.304;2023-05-10T07:57:04;4.33;;;2.60;;
40162;SDS011;25881;47.462;19.304;2023-05-10T07:59:29;5.38;;;3.33;;
40162;SDS011;25881;47.462;19.304;2023-05-10T08:01:55;4.13;;;2.60;;
40162;SDS011;25881;47.462;19.304;2023-05-10T08:04:21;7.90;;;2.80;;
40162;SDS011;25881;47.462;19.304;2023-05-10T08:06:46;4.30;;;2.53;;
40162;SDS011;25881;47.462;19.304;2023-05-10T08:09:11;8.27;;;3.53;;
40162;SDS011;25881;47.462;19.304;2023-05-10T08:11:38;5.25;;;2.78;;
40162;SDS011;25881;47.462;19.304;2023-05-10T08:14:03;5.27;;;2.70;;
40162;SDS011;25881;47.462;19.304;2023-05-10T08:16:28;5.73;;;2.70;;
40162;SDS011;25881;47.462;19.304;2023-05-10T08:18:53;4.40;;;2.67;;
40162;SDS011;25881;47.462;19.304;2023-05-10T08:21:20;5.38;;;2.92;;
40162;SDS011;25881;47.462;19.304;2023-05-10T08:23:45;4.23;;;2.47;;
40162;SDS011;25881;47.462;19.304;2023-05-10T08:26:10;5.43;;;2.80;;
40162;SDS011;25881;47.462;19.304;2023-05-10T08:28:36;4.78;;;2.58;;
40162;SDS011;25881;47.462;19.304;2023-05-10T08:31:01;4.47;;;2.57;;
40162;SDS011;25881;47.462;19.304;2023-05-10T08:33:26;4.43;;;2.27;;
40162;SDS011;25881;47.462;19.304;2023-05-10T08:35:51;3.80;;;2.60;;
40162;SDS011;25881;47.462;19.304;2023-05-10T08:38:17;3.45;;;2.47;;
40162;SDS011;25881;47.462;19.304;2023-05-10T08:40:43;5.03;;;2.70;;
40162;SDS011;25881;47.462;19.304;2023-05-10T08:43:09;5.43;;;2.80;;
40162;SDS011;25881;47.462;19.304;2023-05-10T08:45:42;4.93;;;2.75;;
40162;SDS011;25881;47.462;19.304;2023-05-10T08:48:08;4.80;;;3.10;;
40162;SDS011;25881;47.462;19.304;2023-05-10T08:50:35;8.05;;;2.40;;
40162;SDS011;25881;47.462;19.304;2023-05-10T08:53:00;3.70;;;2.38;;
40162;SDS011;25881;47.462;19.304;2023-05-10T08:55:28;4.38;;;2.35;;
40162;SDS011;25881;47.462;19.304;2023-05-10T08:57:54;4.15;;;2.72;;
40162;SDS011;25881;47.462;19.304;2023-05-10T09:00:19;4.15;;;2.35;;
40162;SDS011;25881;47.462;19.304;2023-05-10T09:02:45;3.97;;;2.83;;
40162;SDS011;25881;47.462;19.304;2023-05-10T09:05:13;5.47;;;2.78;;
40162;SDS011;25881;47.462;19.304;2023-05-10T09:07:40;4.20;;;2.33;;
40162;SDS011;25881;47.462;19.304;2023-05-10T09:10:06;7.05;;;2.72;;
40162;SDS011;25881;47.462;19.304;2023-05-10T09:12:32;3.60;;;2.47;;
40162;SDS011;25881;47.462;19.304;2023-05-10T09:14:57;3.58;;;1.73;;
40162;SDS011;25881;47.462;19.304;2023-05-10T09:17:24;2.88;;;2.17;;
40162;SDS011;25881;47.462;19.304;2023-05-10T09:19:52;6.00;;;2.75;;
40162;SDS011;25881;47.462;19.304;2023-05-10T09:22:21;3.58;;;2.38;;
40162;SDS011;25881;47.462;19.304;2023-05-10T09:24:47;3.50;;;2.38;;
40162;SDS011;25881;47.462;19.304;2023-05-10T09:27:12;3.90;;;2.33;;
40162;SDS011;25881;47.462;19.304;2023-05-10T09:29:41;3.83;;;2.23;;
40162;SDS011;25881;47.462;19.304;2023-05-10T09:32:07;5.35;;;2.75;;
40162;SDS011;25881;47.462;19.304;2023-05-10T09:34:32;4.30;;;2.33;;
40162;SDS011;25881;47.462;19.304;2023-05-10T09:37:00;4.07;;;2.30;;
40162;SDS011;25881;47.462;19.304;2023-05-10T09:39:35;5.53;;;2.30;;
40162;SDS011;25881;47.462;19.304;2023-05-10T09:42:02;4.53;;;2.65;;
40162;SDS011;25881;47.462;19.304;2023-05-10T09:44:28;4.13;;;2.15;;
40162;SDS011;25881;47.462;19.304;2023-05-10T09:46:54;3.08;;;2.10;;
40162;SDS011;25881;47.462;19.304;2023-05-10T09:49:20;4.80;;;2.30;;
40162;SDS011;25881;47.462;19.304;2023-05-10T09:51:45;4.40;;;2.50;;
40162;SDS011;25881;47.462;19.304;2023-05-10T09:54:11;3.20;;;2.10;;
40162;SDS011;25881;47.462;19.304;2023-05-10T09:56:37;3.38;;;2.20;;
40162;SDS011;25881;47.462;19.304;2023-05-10T09:59:05;5.40;;;2.03;;
40162;SDS011;25881;47.462;19.304;2023-05-10T10:01:30;2.75;;;1.83;;
40162;SDS011;25881;47.462;19.304;2023-05-10T10:03:56;2.67;;;1.60;;
40162;SDS011;25881;47.462;19.304;2023-05-10T10:06:23;2.63;;;1.67;;
40162;SDS011;25881;47.462;19.304;2023-05-10T10:08:48;3.13;;;1.73;;
40162;SDS011;25881;47.462;19.304;2023-05-10T10:11:13;2.33;;;1.65;;
40162;SDS011;25881;47.462;19.304;2023-05-10T10:13:39;3.30;;;1.67;;
40162;SDS011;25881;47.462;19.304;2023-05-10T10:16:04;3.25;;;1.88;;
40162;SDS011;25881;47.462;19.304;2023-05-10T10:18:30;2.05;;;1.58;;
40162;SDS011;25881;47.462;19.304;2023-05-10T10:20:55;3.03;;;1.92;;
40162;SDS011;25881;47.462;19.304;2023-05-10T10:23:21;5.47;;;1.90;;
40162;SDS011;25881;47.462;19.304;2023-05-10T10:25:46;2.92;;;1.70;;
40162;SDS011;25881;47.462;19.304;2023-05-10T10:28:24;2.55;;;1.65;;
40162;SDS011;25881;47.462;19.304;2023-05-10T10:30:51;3.40;;;1.75;;
40162;SDS011;25881;47.462;19.304;2023-05-10T10:35:49;2.85;;;1.77;;
40162;SDS011;25881;47.462;19.304;2023-05-10T10:38:15;2.17;;;1.30;;
40162;SDS011;25881;47.462;19.304;2023-05-10T10:40:41;4.70;;;1.73;;
40162;SDS011;25881;47.462;19.304;2023-05-10T10:43:26;2.70;;;1.70;;
40162;SDS011;25881;47.462;19.304;2023-05-10T10:48:39;1.38;;;1.27;;
40162;SDS011;25881;47.462;19.304;2023-05-10T10:51:05;2.22;;;1.48;;
40162;SDS011;25881;47.462;19.304;2023-05-10T10:53:30;3.05;;;1.80;;
40162;SDS011;25881;47.462;19.304;2023-05-10T10:56:12;2.13;;;1.30;;
40162;SDS011;25881;47.462;19.304;2023-05-10T10:58:40;2.22;;;1.50;;
40162;SDS011;25881;47.462;19.304;2023-05-10T11:01:23;2.70;;;1.70;;
40162;SDS011;25881;47.462;19.304;2023-05-10T11:06:29;1.83;;;1.20;;
40162;SDS011;25881;47.462;19.304;2023-05-10T11:08:56;1.60;;;1.20;;
40162;SDS011;25881;47.462;19.304;2023-05-10T11:11:21;5.00;;;1.60;;
40162;SDS011;25881;47.462;19.304;2023-05-10T11:13:47;4.38;;;1.58;;
40162;SDS011;25881;47.462;19.304;2023-05-10T11:16:14;1.95;;;1.30;;
40162;SDS011;25881;47.462;19.304;2023-05-10T11:18:40;1.23;;;1.13;;
40162;SDS011;25881;47.462;19.304;2023-05-10T11:21:07;2.42;;;1.42;;
40162;SDS011;25881;47.462;19.304;2023-05-10T11:26:13;1.95;;;1.20;;
40162;SDS011;25881;47.462;19.304;2023-05-10T11:28:44;6.35;;;1.48;;
40162;SDS011;25881;47.462;19.304;2023-05-10T11:31:10;2.45;;;1.45;;
40162;SDS011;25881;47.462;19.304;2023-05-10T11:33:47;2.70;;;1.00;;
40162;SDS011;25881;47.462;19.304;2023-05-10T11:36:16;1.88;;;1.55;;
40162;SDS011;25881;47.462;19.304;2023-05-10T11:38:42;2.25;;;1.60;;
40162;SDS011;25881;47.462;19.304;2023-05-10T11:41:10;2.28;;;1.45;;
40162;SDS011;25881;47.462;19.304;2023-05-10T11:43:36;1.92;;;1.27;;
40162;SDS011;25881;47.462;19.304;2023-05-10T11:46:03;3.03;;;1.40;;
40162;SDS011;25881;47.462;19.304;2023-05-10T11:48:29;1.75;;;1.20;;
40162;SDS011;25881;47.462;19.304;2023-05-10T11:50:54;1.42;;;1.25;;
40162;SDS011;25881;47.462;19.304;2023-05-10T11:53:22;1.52;;;1.25;;
40162;SDS011;25881;47.462;19.304;2023-05-10T11:55:47;1.83;;;1.27;;
40162;SDS011;25881;47.462;19.304;2023-05-10T11:58:12;2.00;;;1.33;;
40162;SDS011;25881;47.462;19.304;2023-05-10T12:00:37;1.83;;;1.20;;
40162;SDS011;25881;47.462;19.304;2023-05-10T12:03:03;1.70;;;1.23;;
40162;SDS011;25881;47.462;19.304;2023-05-10T12:05:29;1.98;;;1.20;;
40162;SDS011;25881;47.462;19.304;2023-05-10T12:08:10;3.05;;;1.48;;
40162;SDS011;25881;47.462;19.304;2023-05-10T12:10:35;1.08;;;0.95;;
40162;SDS011;25881;47.462;19.304;2023-05-10T12:13:00;2.47;;;1.33;;
40162;SDS011;25881;47.462;19.304;2023-05-10T12:15:26;2.40;;;1.30;;
40162;SDS011;25881;47.462;19.304;2023-05-10T12:17:52;1.48;;;1.15;;
40162;SDS011;25881;47.462;19.304;2023-05-10T12:22:44;1.20;;;1.10;;
40162;SDS011;25881;47.462;19.304;2023-05-10T12:25:09;2.03;;;1.27;;
40162;SDS011;25881;47.462;19.304;2023-05-10T12:27:35;1.48;;;1.27;;
40162;SDS011;25881;47.462;19.304;2023-05-10T12:30:00;1.43;;;1.13;;
40162;SDS011;25881;47.462;19.304;2023-05-10T12:32:39;1.25;;;0.98;;
40162;SDS011;25881;47.462;19.304;2023-05-10T12:35:05;1.05;;;0.90;;
40162;SDS011;25881;47.462;19.304;2023-05-10T12:37:33;1.25;;;1.00;;
40162;SDS011;25881;47.462;19.304;2023-05-10T12:40:03;1.00;;;0.90;;
40162;SDS011;25881;47.462;19.304;2023-05-10T12:42:30;1.55;;;1.10;;
40162;SDS011;25881;47.462;19.304;2023-05-10T12:44:56;1.35;;;0.80;;
40162;SDS011;25881;47.462;19.304;2023-05-10T12:47:22;1.13;;;0.80;;
40162;SDS011;25881;47.462;19.304;2023-05-10T12:49:47;1.47;;;1.00;;
40162;SDS011;25881;47.462;19.304;2023-05-10T12:52:12;1.87;;;1.00;;
40162;SDS011;25881;47.462;19.304;2023-05-10T12:54:37;1.50;;;1.10;;
40162;SDS011;25881;47.462;19.304;2023-05-10T12:57:02;3.77;;;1.70;;
40162;SDS011;25881;47.462;19.304;2023-05-10T12:59:28;2.70;;;1.20;;
40162;SDS011;25881;47.462;19.304;2023-05-10T13:01:53;1.10;;;0.90;;
40162;SDS011;25881;47.462;19.304;2023-05-10T13:04:18;2.47;;;1.33;;
40162;SDS011;25881;47.462;19.304;2023-05-10T13:06:43;4.33;;;2.00;;
40162;SDS011;25881;47.462;19.304;2023-05-10T13:09:09;3.92;;;1.15;;
40162;SDS011;25881;47.462;19.304;2023-05-10T13:11:34;1.97;;;1.30;;
40162;SDS011;25881;47.462;19.304;2023-05-10T13:14:00;1.17;;;1.00;;
40162;SDS011;25881;47.462;19.304;2023-05-10T13:16:25;5.17;;;2.97;;
40162;SDS011;25881;47.462;19.304;2023-05-10T13:18:50;2.80;;;1.30;;
40162;SDS011;25881;47.462;19.304;2023-05-10T13:21:15;1.83;;;1.30;;
40162;SDS011;25881;47.462;19.304;2023-05-10T13:23:41;1.38;;;1.10;;
40162;SDS011;25881;47.462;19.304;2023-05-10T13:26:06;2.20;;;1.00;;
40162;SDS011;25881;47.462;19.304;2023-05-10T13:28:32;0.80;;;0.80;;
40162;SDS011;25881;47.462;19.304;2023-05-10T13:30:57;1.85;;;0.95;;
40162;SDS011;25881;47.462;19.304;2023-05-10T13:33:22;2.27;;;1.00;;
40162;SDS011;25881;47.462;19.304;2023-05-10T13:35:47;1.33;;;1.17;;
40162;SDS011;25881;47.462;19.304;2023-05-10T13:38:13;1.50;;;0.87;;
40162;SDS011;25881;47.462;19.304;2023-05-10T13:40:38;1.27;;;0.80;;
40162;SDS011;25881;47.462;19.304;2023-05-10T13:43:03;2.33;;;1.23;;
40162;SDS011;25881;47.462;19.304;2023-05-10T13:45:29;1.30;;;1.00;;
40162;SDS011;25881;47.462;19.304;2023-05-10T13:47:54;4.00;;;1.00;;
40162;SDS011;25881;47.462;19.304;2023-05-10T13:50:19;1.73;;;1.10;;
40162;SDS011;25881;47.462;19.304;2023-05-10T13:52:44;1.35;;;0.80;;
40162;SDS011;25881;47.462;19.304;2023-05-10T13:55:10;2.03;;;0.80;;
40162;SDS011;25881;47.462;19.304;2023-05-10T13:57:37;1.48;;;1.20;;
40162;SDS011;25881;47.462;19.304;2023-05-10T14:00:02;3.00;;;1.17;;
40162;SDS011;25881;47.462;19.304;2023-05-10T14:02:28;13.35;;;3.08;;
40162;SDS011;25881;47.462;19.304;2023-05-10T14:04:53;37.88;;;7.30;;
40162;SDS011;25881;47.462;19.304;2023-05-10T14:07:18;12.87;;;3.47;;
40162;SDS011;25881;47.462;19.304;2023-05-10T14:09:44;27.80;;;6.80;;
40162;SDS011;25881;47.462;19.304;2023-05-10T14:12:09;11.73;;;3.03;;
40162;SDS011;25881;47.462;19.304;2023-05-10T14:14:34;10.10;;;2.40;;
40162;SDS011;25881;47.462;19.304;2023-05-10T14:17:00;3.58;;;2.03;;
40162;SDS011;25881;47.462;19.304;2023-05-10T14:19:25;7.67;;;3.00;;
40162;SDS011;25881;47.462;19.304;2023-05-10T14:21:51;1.92;;;1.30;;
40162;SDS011;25881;47.462;19.304;2023-05-10T14:24:17;1.37;;;1.03;;
40162;SDS011;25881;47.462;19.304;2023-05-10T14:26:42;0.80;;;0.80;;
40162;SDS011;25881;47.462;19.304;2023-05-10T14:29:07;0.80;;;0.80;;
40162;SDS011;25881;47.462;19.304;2023-05-10T14:31:32;0.90;;;0.70;;
40162;SDS011;25881;47.462;19.304;2023-05-10T14:33:58;1.05;;;0.80;;
40162;SDS011;25881;47.462;19.304;2023-05-10T14:36:24;1.88;;;0.70;;
40162;SDS011;25881;47.462;19.304;2023-05-10T14:38:49;1.70;;;0.77;;
40162;SDS011;25881;47.462;19.304;2023-05-10T14:41:15;2.25;;;0.77;;
40162;SDS011;25881;47.462;19.304;2023-05-10T14:43:42;1.40;;;0.80;;
40162;SDS011;25881;47.462;19.304;2023-05-10T14:46:07;1.52;;;0.88;;
40162;SDS011;25881;47.462;19.304;2023-05-10T14:48:33;1.13;;;0.63;;
40162;SDS011;25881;47.462;19.304;2023-05-10T14:50:58;1.10;;;0.70;;
40162;SDS011;25881;47.462;19.304;2023-05-10T14:53:24;1.27;;;1.00;;
40162;SDS011;25881;47.462;19.304;2023-05-10T14:55:49;2.10;;;0.90;;
40162;SDS011;25881;47.462;19.304;2023-05-10T14:58:14;1.15;;;0.80;;